Time;durP1;ratioP1;P1;durP2;ratioP2;P2;SDS_P1;SDS_P2;PMS_P1;PMS_P2;Temp;Humidity;BMP_temperature;BMP_pressure;BME280_temperature;BME280_humidity;BME280_pressure;Samples;Min_cycle;Max_cycle;Signal;HPM_P1;HPM_P2
2021/06/17 00:01:14;;;;;;;1.48;1.38;;;25.60;41.00;;;;;;4992519;28;20226;-51
2021/06/17 00:03:41;;;;;;;1.75;1.20;;;25.60;40.90;;;;;;4991812;28;20204;-41
2021/06/17 00:06:07;;;;;;;1.80;1.25;;;25.60;41.00;;;;;;4990504;28;20238;-49
2021/06/17 00:08:34;;;;;;;1.83;1.42;;;25.60;41.00;;;;;;4991851;28;20204;-53
2021/06/17 00:11:00;;;;;;;1.73;1.63;;;25.60;41.00;;;;;;4991770;28;20224;-44
2021/06/17 00:13:27;;;;;;;1.48;1.30;;;25.60;41.00;;;;;;4992154;28;20223;-52
2021/06/17 00:15:53;;;;;;;1.40;1.30;;;25.60;41.00;;;;;;4990022;28;20698;-42
2021/06/17 00:18:20;;;;;;;1.42;1.30;;;25.60;41.00;;;;;;4992228;28;20777;-51
2021/06/17 00:20:47;;;;;;;1.85;1.65;;;25.60;41.00;;;;;;4991257;28;20231;-46
2021/06/17 00:23:13;;;;;;;1.45;1.35;;;25.60;41.00;;;;;;4991950;28;20634;-52
2021/06/17 00:25:40;;;;;;;1.60;1.30;;;25.60;41.00;;;;;;4990924;28;20574;-54
2021/06/17 00:28:06;;;;;;;1.95;1.75;;;25.60;41.10;;;;;;4992073;28;20577;-43
2021/06/17 00:30:33;;;;;;;1.48;1.38;;;25.50;41.00;;;;;;4991069;28;20223;-47
2021/06/17 00:32:59;;;;;;;1.50;1.40;;;25.60;41.10;;;;;;4991181;28;20196;-50
2021/06/17 00:35:28;;;;;;;1.50;1.40;;;25.50;41.00;;;;;;4991581;28;20312;-48
2021/06/17 00:37:54;;;;;;;1.70;1.60;;;25.60;41.10;;;;;;4991443;28;20212;-48
2021/06/17 00:40:20;;;;;;;1.30;1.20;;;25.50;41.00;;;;;;4991243;28;20224;-55
2021/06/17 00:42:47;;;;;;;1.50;1.20;;;25.50;41.00;;;;;;4991053;28;20199;-48
2021/06/17 00:45:13;;;;;;;1.40;1.20;;;25.50;41.00;;;;;;4990586;28;20233;-50
2021/06/17 00:47:40;;;;;;;1.40;1.30;;;25.50;41.00;;;;;;4990370;28;20199;-49
2021/06/17 00:50:06;;;;;;;1.60;1.50;;;25.50;41.00;;;;;;4989462;28;20220;-50
2021/06/17 00:52:33;;;;;;;1.52;1.42;;;25.50;41.00;;;;;;4990841;28;20218;-53
2021/06/17 00:54:59;;;;;;;1.33;1.23;;;25.50;41.00;;;;;;4991433;28;20200;-43
2021/06/17 00:57:26;;;;;;;2.17;1.45;;;25.50;41.00;;;;;;4985875;28;20236;-43
2021/06/17 00:59:52;;;;;;;1.48;1.20;;;25.50;41.00;;;;;;4978640;28;20231;-43
2021/06/17 01:02:19;;;;;;;1.95;1.38;;;25.50;41.00;;;;;;4990086;28;20204;-54
2021/06/17 01:04:45;;;;;;;1.52;1.30;;;25.50;41.00;;;;;;4991133;28;20219;-47
2021/06/17 01:07:11;;;;;;;1.60;1.48;;;25.50;41.00;;;;;;4990026;28;20203;-45
2021/06/17 01:09:38;;;;;;;1.40;1.20;;;25.50;41.00;;;;;;4990964;28;20378;-45
2021/06/17 01:12:04;;;;;;;1.70;1.40;;;25.50;41.00;;;;;;4990137;28;20212;-40
2021/06/17 01:14:31;;;;;;;1.60;1.33;;;25.50;41.00;;;;;;4990226;28;20207;-55
2021/06/17 01:16:57;;;;;;;1.67;1.30;;;25.50;41.00;;;;;;4991578;28;20210;-49
2021/06/17 01:19:24;;;;;;;1.40;1.30;;;25.50;41.00;;;;;;4990709;28;20264;-43
2021/06/17 01:21:50;;;;;;;1.38;1.27;;;25.50;41.00;;;;;;4990224;28;20228;-43
2021/06/17 01:24:16;;;;;;;1.33;1.23;;;25.50;41.00;;;;;;4990690;28;20200;-45
2021/06/17 01:26:43;;;;;;;1.60;1.38;;;25.50;41.00;;;;;;4991296;28;20242;-42
2021/06/17 01:29:09;;;;;;;1.50;1.40;;;25.50;41.00;;;;;;4987572;28;20299;-44
2021/06/17 01:31:36;;;;;;;2.10;1.52;;;25.50;41.10;;;;;;4990378;28;20307;-51
2021/06/17 01:34:02;;;;;;;1.55;1.45;;;25.50;41.10;;;;;;4982490;28;20220;-42
2021/06/17 01:36:29;;;;;;;1.50;1.40;;;25.50;41.00;;;;;;4990641;28;20199;-45
2021/06/17 01:38:55;;;;;;;1.40;1.30;;;25.50;41.00;;;;;;4991494;28;20245;-40
2021/06/17 01:41:22;;;;;;;1.40;1.30;;;25.50;41.00;;;;;;4989878;28;20226;-37
2021/06/17 01:43:48;;;;;;;1.40;1.30;;;25.50;41.00;;;;;;4990598;28;20213;-43
2021/06/17 01:46:15;;;;;;;1.33;1.23;;;25.50;41.00;;;;;;4990239;28;20227;-41
2021/06/17 01:48:41;;;;;;;1.20;1.10;;;25.50;41.00;;;;;;4990428;28;20291;-43
2021/06/17 01:51:08;;;;;;;2.05;1.48;;;25.50;41.00;;;;;;4987554;28;20224;-41
2021/06/17 01:53:34;;;;;;;1.30;1.20;;;25.50;41.00;;;;;;4990486;28;20202;-40
2021/06/17 01:56:00;;;;;;;1.50;1.40;;;25.50;41.00;;;;;;4990616;28;20206;-42
2021/06/17 01:58:27;;;;;;;1.70;1.60;;;25.50;41.00;;;;;;4991044;28;20286;-46
2021/06/17 02:00:53;;;;;;;1.55;1.45;;;25.50;41.00;;;;;;4989436;28;20236;-42
2021/06/17 02:03:20;;;;;;;1.50;1.25;;;25.50;41.00;;;;;;4990054;28;20200;-40
2021/06/17 02:05:46;;;;;;;1.48;1.38;;;25.50;41.00;;;;;;4990045;28;20237;-48
2021/06/17 02:08:13;;;;;;;1.50;1.40;;;25.50;41.00;;;;;;4991306;28;20207;-47
2021/06/17 02:10:39;;;;;;;1.52;1.42;;;25.50;41.00;;;;;;4989120;28;20227;-41
2021/06/17 02:13:06;;;;;;;1.33;1.27;;;25.50;41.00;;;;;;4984375;28;20214;-49
2021/06/17 02:15:32;;;;;;;1.55;1.45;;;25.50;41.00;;;;;;4987661;28;20204;-41
2021/06/17 02:17:58;;;;;;;1.95;0.98;;;25.50;41.30;;;;;;4990031;28;20199;-57
2021/06/17 02:20:25;;;;;;;1.85;1.25;;;25.50;41.30;;;;;;4989514;28;20704;-47
2021/06/17 02:22:52;;;;;;;1.40;1.30;;;25.50;41.20;;;;;;4988941;28;20522;-38
2021/06/17 02:25:18;;;;;;;2.50;1.55;;;25.50;41.30;;;;;;4990064;28;20235;-43
2021/06/17 02:27:45;;;;;;;1.20;1.10;;;25.50;41.30;;;;;;4989770;28;20230;-37
2021/06/17 02:30:12;;;;;;;1.40;1.30;;;25.50;41.30;;;;;;4993246;28;20236;-37
2021/06/17 02:32:38;;;;;;;1.25;1.15;;;25.50;41.30;;;;;;4992711;28;20290;-40
2021/06/17 02:35:04;;;;;;;1.40;1.30;;;25.50;41.20;;;;;;4990438;28;20206;-36
2021/06/17 02:37:31;;;;;;;1.40;1.30;;;25.50;41.30;;;;;;4992887;28;20202;-41
2021/06/17 02:39:57;;;;;;;2.15;1.58;;;25.50;41.20;;;;;;4993270;28;20231;-48
2021/06/17 02:42:24;;;;;;;1.50;1.40;;;25.50;41.20;;;;;;4992692;28;20212;-43
2021/06/17 02:44:50;;;;;;;1.23;1.13;;;25.50;41.20;;;;;;4992245;28;20200;-42
2021/06/17 02:47:17;;;;;;;1.40;1.30;;;25.50;41.20;;;;;;4993515;28;20199;-52
2021/06/17 02:49:43;;;;;;;1.70;1.60;;;25.50;41.20;;;;;;4993471;28;20238;-51
2021/06/17 02:52:10;;;;;;;1.30;1.20;;;25.50;41.20;;;;;;4991942;28;20208;-41
2021/06/17 02:54:36;;;;;;;1.70;1.15;;;25.50;41.20;;;;;;4991804;28;20695;-37
2021/06/17 02:57:02;;;;;;;1.33;1.20;;;25.50;41.10;;;;;;4990408;28;20225;-50
2021/06/17 02:59:29;;;;;;;1.65;1.30;;;25.50;41.10;;;;;;4985926;28;20308;-41
2021/06/17 03:01:56;;;;;;;1.73;1.20;;;25.50;41.20;;;;;;4992855;28;20250;-50
2021/06/17 03:04:22;;;;;;;1.55;1.15;;;25.50;41.30;;;;;;4993205;28;20342;-51
2021/06/17 03:06:48;;;;;;;1.52;1.30;;;25.50;41.20;;;;;;4992378;28;20319;-47
2021/06/17 03:09:15;;;;;;;1.65;1.40;;;25.50;41.30;;;;;;4992985;28;20208;-56
2021/06/17 03:11:41;;;;;;;1.50;1.40;;;25.50;41.30;;;;;;4993198;28;20240;-42
2021/06/17 03:14:08;;;;;;;1.63;1.52;;;25.50;41.30;;;;;;4992731;28;20200;-43
2021/06/17 03:16:34;;;;;;;1.60;1.30;;;25.50;41.30;;;;;;4991013;28;20196;-49
2021/06/17 03:19:01;;;;;;;1.50;1.40;;;25.50;41.30;;;;;;4992295;28;20218;-53
2021/06/17 03:21:27;;;;;;;1.58;1.33;;;25.50;41.30;;;;;;4992932;28;20204;-48
2021/06/17 03:23:53;;;;;;;1.90;1.40;;;25.50;41.30;;;;;;4992741;28;20203;-48
2021/06/17 03:26:20;;;;;;;1.38;1.27;;;25.50;41.30;;;;;;4973727;28;20234;-38
2021/06/17 03:28:47;;;;;;;2.83;1.85;;;25.50;41.30;;;;;;4988861;28;20208;-41
2021/06/17 03:31:13;;;;;;;1.63;1.40;;;25.50;41.40;;;;;;4977255;28;20270;-39
2021/06/17 03:33:40;;;;;;;1.55;1.45;;;25.50;41.40;;;;;;4986243;28;20295;-40
2021/06/17 03:36:06;;;;;;;1.63;1.40;;;25.50;41.30;;;;;;4992879;28;20207;-47
2021/06/17 03:38:33;;;;;;;2.33;1.40;;;25.50;41.30;;;;;;4992102;28;20216;-42
2021/06/17 03:40:59;;;;;;;1.40;1.30;;;25.50;41.30;;;;;;4991479;28;20220;-41
2021/06/17 03:43:25;;;;;;;1.50;1.40;;;25.50;41.30;;;;;;4990409;28;20196;-50
2021/06/17 03:45:52;;;;;;;1.50;1.35;;;25.50;41.30;;;;;;4992047;28;20227;-48
2021/06/17 03:48:18;;;;;;;1.95;1.40;;;25.50;41.30;;;;;;4992823;28;20234;-41
2021/06/17 03:50:45;;;;;;;1.50;1.40;;;25.50;41.30;;;;;;4990649;28;20228;-45
2021/06/17 03:53:13;;;;;;;1.67;1.38;;;25.50;41.30;;;;;;4990980;28;20214;-41
2021/06/17 03:55:40;;;;;;;1.55;1.30;;;25.50;41.30;;;;;;4991360;28;20214;-46
2021/06/17 03:58:06;;;;;;;2.45;1.40;;;25.50;41.30;;;;;;4993615;28;20299;-50
2021/06/17 04:00:33;;;;;;;1.30;1.20;;;25.50;41.20;;;;;;4989010;28;20230;-43
2021/06/17 04:02:59;;;;;;;1.50;1.40;;;25.50;41.30;;;;;;4980634;28;20199;-48
2021/06/17 04:05:26;;;;;;;1.50;1.40;;;25.50;41.20;;;;;;4981156;28;20212;-46
2021/06/17 04:07:52;;;;;;;1.40;1.27;;;25.50;41.20;;;;;;4993194;28;20289;-38
2021/06/17 04:10:19;;;;;;;1.50;1.40;;;25.50;41.20;;;;;;4991919;28;20270;-43
2021/06/17 04:12:45;;;;;;;1.52;1.42;;;25.50;41.20;;;;;;4991243;28;20226;-40
2021/06/17 04:15:12;;;;;;;1.40;1.30;;;25.50;41.20;;;;;;4991150;28;20204;-45
2021/06/17 04:17:38;;;;;;;1.75;1.65;;;25.50;41.30;;;;;;4992911;28;20215;-53
2021/06/17 04:20:05;;;;;;;1.67;1.35;;;25.50;41.20;;;;;;4991453;28;20626;-38
2021/06/17 04:22:31;;;;;;;1.40;1.30;;;25.50;41.20;;;;;;4991807;28;20570;-37
2021/06/17 04:24:57;;;;;;;1.40;1.30;;;25.50;41.20;;;;;;4990822;28;20660;-38
2021/06/17 04:27:24;;;;;;;1.80;1.50;;;25.50;41.20;;;;;;4991769;28;20692;-41
2021/06/17 04:29:51;;;;;;;1.50;1.40;;;25.50;41.30;;;;;;4991581;28;20295;-41
2021/06/17 04:32:17;;;;;;;1.20;1.10;;;25.50;41.20;;;;;;4991890;28;20814;-42
2021/06/17 04:34:43;;;;;;;1.40;1.30;;;25.50;41.20;;;;;;4992019;28;20203;-38
2021/06/17 04:37:10;;;;;;;1.23;1.13;;;25.50;41.20;;;;;;4991270;28;20235;-38
2021/06/17 04:39:37;;;;;;;4.80;1.70;;;25.50;41.30;;;;;;4990898;28;20219;-45
2021/06/17 04:42:03;;;;;;;1.50;1.35;;;25.50;41.20;;;;;;4991611;28;20560;-51
2021/06/17 04:44:30;;;;;;;2.13;1.40;;;25.50;41.30;;;;;;4991543;28;20653;-40
2021/06/17 04:46:56;;;;;;;1.85;1.52;;;25.50;41.30;;;;;;4990733;28;20232;-41
2021/06/17 04:49:23;;;;;;;2.50;1.50;;;25.50;41.30;;;;;;4991596;28;20226;-38
2021/06/17 04:51:49;;;;;;;1.80;1.20;;;25.50;41.30;;;;;;4987955;28;20204;-49
2021/06/17 04:54:19;;;;;;;1.60;1.50;;;25.50;41.30;;;;;;4989257;28;20200;-49
2021/06/17 04:56:45;;;;;;;1.45;1.30;;;25.50;41.30;;;;;;4991410;28;20334;-51
2021/06/17 04:59:12;;;;;;;1.73;1.10;;;25.50;41.20;;;;;;4989392;28;20224;-49
2021/06/17 05:01:40;;;;;;;1.35;1.25;;;25.50;41.20;;;;;;4991331;28;20298;-54
2021/06/17 05:04:07;;;;;;;1.40;1.30;;;25.50;41.30;;;;;;4990099;28;20203;-41
2021/06/17 05:06:36;;;;;;;1.30;1.20;;;25.50;41.30;;;;;;4990849;28;20219;-40
2021/06/17 05:11:55;;;;;;;1.63;1.40;;;25.50;41.20;;;;;;4965831;28;20211;-45
2021/06/17 05:14:21;;;;;;;1.60;1.30;;;25.50;41.30;;;;;;4990361;28;20204;-43
2021/06/17 05:16:48;;;;;;;2.10;1.50;;;25.50;41.30;;;;;;4991011;28;20286;-49
2021/06/17 05:19:14;;;;;;;1.42;1.33;;;25.50;41.20;;;;;;4991746;28;20228;-52
2021/06/17 05:21:42;;;;;;;1.60;1.50;;;25.50;41.20;;;;;;4990493;28;20592;-49
2021/06/17 05:24:08;;;;;;;1.52;1.40;;;25.50;41.20;;;;;;4990145;28;20207;-49
2021/06/17 05:26:35;;;;;;;1.60;1.30;;;25.50;41.20;;;;;;4989812;28;20234;-42
2021/06/17 05:29:01;;;;;;;3.88;1.55;;;25.50;41.20;;;;;;4991524;28;20242;-40
2021/06/17 05:31:28;;;;;;;1.30;1.20;;;25.50;41.20;;;;;;4987514;28;20310;-38
2021/06/17 05:33:54;;;;;;;1.60;1.13;;;25.50;41.20;;;;;;4989890;28;20287;-41
2021/06/17 05:36:21;;;;;;;1.40;1.30;;;25.50;41.20;;;;;;4991904;28;20239;-40
2021/06/17 05:38:48;;;;;;;1.50;1.40;;;25.50;41.20;;;;;;4990825;28;20230;-41
2021/06/17 05:41:14;;;;;;;4.88;1.38;;;25.50;41.40;;;;;;4989144;28;20199;-44
2021/06/17 05:43:41;;;;;;;2.53;1.33;;;25.60;41.30;;;;;;4989914;28;20203;-50
2021/06/17 05:46:07;;;;;;;2.70;1.40;;;25.60;41.50;;;;;;4986847;28;20230;-41
2021/06/17 05:48:34;;;;;;;4.60;2.10;;;25.60;41.80;;;;;;4991024;28;20754;-42
2021/06/17 05:51:00;;;;;;;3.92;2.10;;;25.60;41.60;;;;;;4988030;28;20299;-39
2021/06/17 05:53:27;;;;;;;5.38;2.10;;;25.60;42.40;;;;;;4989721;28;20741;-40
2021/06/17 05:55:53;;;;;;;6.40;2.30;;;25.70;43.40;;;;;;4989474;28;20591;-39
2021/06/17 05:58:20;;;;;;;4.68;2.20;;;25.70;42.90;;;;;;4992032;28;20282;-42
2021/06/17 06:00:46;;;;;;;4.85;2.03;;;25.70;44.20;;;;;;5002299;28;20211;-47
2021/06/17 06:03:13;;;;;;;6.82;1.95;;;25.60;44.20;;;;;;4989773;28;20208;-42
2021/06/17 06:05:39;;;;;;;3.47;2.65;;;25.60;44.20;;;;;;4992790;28;20199;-47
2021/06/17 06:08:08;;;;;;;4.47;2.72;;;25.60;43.50;;;;;;4996295;28;20231;-44
2021/06/17 06:10:34;;;;;;;4.65;3.20;;;25.50;42.20;;;;;;4987800;28;20256;-44
2021/06/17 06:13:01;;;;;;;6.88;2.97;;;25.50;41.50;;;;;;4993362;28;20217;-40
2021/06/17 06:15:32;;;;;;;3.83;2.20;;;25.50;42.50;;;;;;4993582;28;20275;-39
2021/06/17 06:17:59;;;;;;;6.00;3.70;;;25.60;43.00;;;;;;4993001;28;20686;-39
2021/06/17 06:20:25;;;;;;;7.32;3.67;;;25.30;40.90;;;;;;4992869;28;20591;-39
2021/06/17 06:22:52;;;;;;;5.43;4.18;;;24.40;40.00;;;;;;4994286;28;20540;-43
2021/06/17 06:25:18;;;;;;;6.10;3.90;;;24.30;40.20;;;;;;4990845;28;20665;-43
2021/06/17 06:27:45;;;;;;;6.13;4.05;;;24.10;39.90;;;;;;4993799;28;20700;-44
2021/06/17 06:30:11;;;;;;;4.43;3.92;;;24.50;40.80;;;;;;4994520;28;20722;-38
2021/06/17 06:32:38;;;;;;;6.70;4.22;;;24.60;40.10;;;;;;4992594;28;20204;-41
2021/06/17 06:35:04;;;;;;;5.38;3.67;;;23.90;39.40;;;;;;4993511;28;20768;-45
2021/06/17 06:37:30;;;;;;;4.10;3.70;;;23.70;40.10;;;;;;4994499;28;20645;-46
2021/06/17 06:39:57;;;;;;;4.97;3.60;;;24.10;40.40;;;;;;4991794;28;20696;-54
2021/06/17 06:42:23;;;;;;;3.60;3.25;;;24.50;41.50;;;;;;4991377;28;20652;-44
2021/06/17 06:44:50;;;;;;;4.75;3.03;;;24.80;41.00;;;;;;4991868;28;20694;-43
2021/06/17 06:47:16;;;;;;;6.25;3.55;;;25.00;41.10;;;;;;4984491;28;20551;-40
2021/06/17 06:49:43;;;;;;;3.85;3.55;;;25.10;41.20;;;;;;4992923;28;20710;-38
2021/06/17 06:52:09;;;;;;;5.50;3.00;;;25.20;41.40;;;;;;4988096;28;20204;-50
2021/06/17 06:54:36;;;;;;;3.35;3.03;;;25.30;41.50;;;;;;4993535;28;20240;-41
2021/06/17 06:57:02;;;;;;;5.15;3.15;;;25.30;41.60;;;;;;4992429;28;20210;-39
2021/06/17 06:59:29;;;;;;;3.53;3.22;;;25.30;41.70;;;;;;4992231;28;20242;-43
2021/06/17 07:01:56;;;;;;;4.75;2.97;;;25.40;41.90;;;;;;4988502;28;20291;-56
2021/06/17 07:04:22;;;;;;;3.75;3.30;;;25.40;42.10;;;;;;4989267;28;20204;-39
2021/06/17 07:06:49;;;;;;;5.45;2.88;;;25.40;42.10;;;;;;4992859;28;20224;-46
2021/06/17 07:09:15;;;;;;;2.90;2.70;;;25.50;42.40;;;;;;4990412;28;20226;-48
2021/06/17 07:11:42;;;;;;;2.70;2.50;;;25.50;42.60;;;;;;4977324;28;20211;-50
2021/06/17 07:14:08;;;;;;;4.00;3.10;;;25.50;42.70;;;;;;4991207;28;20243;-43
2021/06/17 07:16:35;;;;;;;2.92;2.72;;;25.50;42.60;;;;;;4988845;28;20210;-45
2021/06/17 07:19:05;;;;;;;4.65;2.40;;;25.60;43.00;;;;;;4993181;28;20220;-51
2021/06/17 07:21:31;;;;;;;5.38;3.30;;;25.60;43.40;;;;;;4987988;28;20205;-42
2021/06/17 07:23:58;;;;;;;3.63;2.60;;;25.60;43.50;;;;;;4980835;28;20204;-49
2021/06/17 07:26:27;;;;;;;4.25;2.50;;;25.70;43.80;;;;;;4991611;28;20227;-41
2021/06/17 07:28:54;;;;;;;3.80;3.30;;;25.70;44.30;;;;;;4986975;28;20315;-40
2021/06/17 07:31:20;;;;;;;3.63;3.33;;;25.50;42.90;;;;;;4989747;28;20286;-45
2021/06/17 07:33:46;;;;;;;5.10;3.00;;;25.60;42.90;;;;;;4992038;28;20208;-47
2021/06/17 07:36:14;;;;;;;3.00;2.70;;;25.60;43.60;;;;;;4992263;28;20310;-45
2021/06/17 07:38:41;;;;;;;3.10;2.85;;;25.70;43.40;;;;;;4990888;28;20223;-41
2021/06/17 07:41:07;;;;;;;3.92;2.65;;;25.70;43.20;;;;;;4992134;28;20296;-45
2021/06/17 07:43:33;;;;;;;3.78;2.85;;;25.70;44.10;;;;;;4990446;28;20200;-43
2021/06/17 07:46:01;;;;;;;3.53;2.92;;;25.70;43.60;;;;;;4991915;28;20214;-43
2021/06/17 07:48:28;;;;;;;6.30;3.00;;;25.70;43.20;;;;;;4992345;28;20238;-47
2021/06/17 07:50:54;;;;;;;5.82;3.20;;;25.60;42.20;;;;;;4991145;28;20294;-46
2021/06/17 07:53:21;;;;;;;9.95;3.50;;;25.60;42.80;;;;;;4993079;28;20630;-46
2021/06/17 07:55:47;;;;;;;5.22;3.80;;;25.60;43.40;;;;;;4984863;28;20567;-45
2021/06/17 07:58:13;;;;;;;4.50;3.58;;;25.60;42.30;;;;;;4990344;28;20226;-51
2021/06/17 08:00:40;;;;;;;8.25;3.50;;;25.60;42.60;;;;;;4987579;28;20283;-38
2021/06/17 08:03:08;;;;;;;4.05;2.92;;;25.60;43.50;;;;;;4989673;28;20208;-43
2021/06/17 08:05:34;;;;;;;4.03;2.92;;;25.70;43.60;;;;;;4993198;28;20203;-43
2021/06/17 08:08:00;;;;;;;3.45;2.78;;;25.70;43.50;;;;;;4990776;28;20228;-42
2021/06/17 08:10:27;;;;;;;3.83;2.63;;;25.70;43.40;;;;;;4986267;28;20215;-50
2021/06/17 08:12:53;;;;;;;4.75;2.88;;;25.70;44.20;;;;;;4985623;28;20218;-43
2021/06/17 08:15:20;;;;;;;3.65;2.30;;;25.80;45.20;;;;;;4983679;28;20204;-41
2021/06/17 08:17:46;;;;;;;5.10;2.38;;;25.80;44.40;;;;;;4993067;28;20619;-40
2021/06/17 08:20:13;;;;;;;3.28;2.40;;;25.80;44.90;;;;;;4987990;28;20860;-47
2021/06/17 08:22:40;;;;;;;3.00;2.40;;;25.80;44.90;;;;;;4991769;28;20661;-38
2021/06/17 08:25:06;;;;;;;2.80;2.45;;;25.80;44.30;;;;;;4988383;28;20275;-39
2021/06/17 08:27:33;;;;;;;4.10;2.53;;;25.80;44.40;;;;;;4988236;28;20242;-44
2021/06/17 08:30:00;;;;;;;4.38;2.47;;;25.80;44.30;;;;;;4990317;28;20227;-39
2021/06/17 08:32:27;;;;;;;3.70;2.70;;;25.80;44.30;;;;;;4991382;28;20210;-48
2021/06/17 08:34:53;;;;;;;4.45;2.65;;;25.80;44.30;;;;;;4989341;28;20208;-46
2021/06/17 08:37:19;;;;;;;6.47;2.80;;;25.80;44.40;;;;;;4991021;28;20291;-42
2021/06/17 08:39:46;;;;;;;3.10;2.55;;;25.80;44.30;;;;;;4991222;28;20220;-46
2021/06/17 08:42:13;;;;;;;4.75;2.92;;;25.80;44.30;;;;;;4990850;28;20252;-45
2021/06/17 08:44:39;;;;;;;5.57;2.85;;;25.80;44.20;;;;;;4990848;28;20228;-41
2021/06/17 08:47:06;;;;;;;5.43;3.10;;;25.80;44.00;;;;;;4990492;28;20310;-45
2021/06/17 08:49:32;;;;;;;6.28;2.70;;;25.80;44.30;;;;;;4988210;28;20268;-48
2021/06/17 08:51:59;;;;;;;4.57;3.05;;;25.80;43.90;;;;;;4985479;28;20255;-42
2021/06/17 08:54:26;;;;;;;4.93;3.10;;;25.80;44.30;;;;;;4990736;28;20195;-43
2021/06/17 08:56:52;;;;;;;3.10;2.80;;;25.80;44.30;;;;;;4985973;28;20231;-47
2021/06/17 08:59:19;;;;;;;9.27;3.17;;;25.80;44.30;;;;;;5001018;28;20317;-49
2021/06/17 09:01:45;;;;;;;4.22;2.95;;;25.90;44.80;;;;;;4997700;28;20261;-47
2021/06/17 09:04:12;;;;;;;4.07;3.00;;;25.90;44.40;;;;;;4996285;28;20205;-46
2021/06/17 09:06:38;;;;;;;5.45;3.35;;;25.80;44.50;;;;;;4991511;28;20200;-38
2021/06/17 09:09:04;;;;;;;7.38;3.75;;;25.80;44.70;;;;;;4991099;28;20230;-44
2021/06/17 09:11:31;;;;;;;5.45;3.17;;;25.80;44.40;;;;;;4999010;28;20205;-41
2021/06/17 09:13:57;;;;;;;5.07;3.00;;;25.80;44.50;;;;;;4995576;28;20206;-43
2021/06/17 09:16:26;;;;;;;6.07;2.80;;;25.80;44.30;;;;;;4991558;28;20214;-51
2021/06/17 09:18:53;;;;;;;3.10;2.80;;;25.80;44.30;;;;;;4995660;28;20231;-49
2021/06/17 09:21:19;;;;;;;5.75;3.17;;;25.80;44.30;;;;;;5006456;28;20283;-45
2021/06/17 09:23:46;;;;;;;6.22;2.78;;;25.80;44.40;;;;;;4990554;28;20203;-48
2021/06/17 09:26:13;;;;;;;6.28;3.00;;;25.80;44.40;;;;;;4993324;28;20203;-49
2021/06/17 09:28:39;;;;;;;4.75;3.10;;;25.80;44.40;;;;;;4990303;28;20704;-42
2021/06/17 09:31:07;;;;;;;3.45;2.97;;;25.90;44.40;;;;;;4990989;28;20204;-52
2021/06/17 09:33:33;;;;;;;3.90;3.10;;;25.90;44.40;;;;;;4987936;28;20321;-43
2021/06/17 09:35:59;;;;;;;3.03;2.83;;;25.90;44.30;;;;;;4987563;28;20222;-47
2021/06/17 09:38:26;;;;;;;4.43;2.88;;;25.90;44.40;;;;;;4991487;28;20298;-46
2021/06/17 09:40:53;;;;;;;3.38;2.83;;;25.90;44.20;;;;;;4990094;28;20780;-47
2021/06/17 09:43:19;;;;;;;4.03;2.97;;;25.90;44.00;;;;;;4990306;28;20207;-47
2021/06/17 09:45:45;;;;;;;3.35;2.78;;;25.90;43.80;;;;;;4988132;28;20291;-42
2021/06/17 09:48:12;;;;;;;3.45;3.15;;;25.90;43.70;;;;;;4983293;28;20286;-42
2021/06/17 09:50:38;;;;;;;3.38;3.05;;;25.90;43.70;;;;;;4994540;28;20231;-48
2021/06/17 09:53:05;;;;;;;3.60;2.90;;;25.90;43.70;;;;;;4988492;28;20216;-44
2021/06/17 09:55:31;;;;;;;2.70;2.50;;;25.90;43.70;;;;;;4987555;28;20214;-49
2021/06/17 09:57:58;;;;;;;2.95;2.70;;;25.90;43.60;;;;;;4989696;28;20803;-44
2021/06/17 10:00:24;;;;;;;3.58;3.28;;;25.90;43.60;;;;;;4981070;28;20680;-40
2021/06/17 10:02:51;;;;;;;3.25;2.95;;;25.90;43.60;;;;;;4984927;28;20200;-41
2021/06/17 10:05:18;;;;;;;3.65;3.15;;;25.90;43.40;;;;;;4989696;28;20660;-40
2021/06/17 10:07:45;;;;;;;5.65;3.17;;;25.90;43.30;;;;;;4976055;28;20250;-45
2021/06/17 10:10:12;;;;;;;3.10;2.85;;;25.90;43.10;;;;;;4986444;28;20205;-46
2021/06/17 10:12:38;;;;;;;4.07;2.90;;;25.90;43.10;;;;;;4989186;28;20207;-44
2021/06/17 10:15:05;;;;;;;3.60;3.22;;;25.90;43.10;;;;;;4989351;28;20257;-48
2021/06/17 10:17:31;;;;;;;3.25;2.95;;;25.90;43.80;;;;;;4994869;28;20208;-39
2021/06/17 10:19:58;;;;;;;2.90;2.67;;;25.90;43.20;;;;;;4990159;28;20208;-43
2021/06/17 10:22:24;;;;;;;3.05;2.85;;;25.90;43.00;;;;;;4990830;28;20204;-42
2021/06/17 10:24:51;;;;;;;3.38;2.90;;;25.90;43.10;;;;;;4991075;28;20204;-46
2021/06/17 10:27:18;;;;;;;5.45;3.47;;;25.90;42.80;;;;;;4993650;28;20338;-42
2021/06/17 10:29:44;;;;;;;3.28;2.65;;;25.90;42.90;;;;;;4995565;28;20290;-41
2021/06/17 10:32:12;;;;;;;5.90;2.90;;;25.90;42.80;;;;;;4988963;28;20208;-44
2021/06/17 10:34:38;;;;;;;3.13;2.88;;;26.00;42.80;;;;;;4987605;28;20196;-44
2021/06/17 10:37:05;;;;;;;4.82;3.35;;;26.00;42.90;;;;;;4981439;28;20640;-48
2021/06/17 10:39:32;;;;;;;2.97;2.72;;;26.00;42.60;;;;;;4988294;28;20242;-43
2021/06/17 10:41:58;;;;;;;3.05;2.85;;;26.00;42.60;;;;;;4989575;28;20282;-40
2021/06/17 10:44:25;;;;;;;4.22;2.75;;;26.00;42.70;;;;;;4984521;28;20204;-49
2021/06/17 10:46:51;;;;;;;4.20;2.90;;;26.00;42.70;;;;;;4990301;28;20245;-46
2021/06/17 10:49:18;;;;;;;3.75;3.25;;;25.90;42.60;;;;;;4990668;28;20680;-50
2021/06/17 10:51:44;;;;;;;3.28;2.95;;;25.90;42.60;;;;;;4993699;28;20582;-42
2021/06/17 10:54:10;;;;;;;3.28;3.03;;;25.90;42.60;;;;;;4994478;28;20214;-46
2021/06/17 10:56:37;;;;;;;4.13;2.83;;;25.90;42.60;;;;;;4994074;28;20210;-45
2021/06/17 10:59:03;;;;;;;2.90;2.70;;;25.90;42.60;;;;;;4994461;28;20227;-54
2021/06/17 11:01:30;;;;;;;2.88;2.65;;;25.90;42.60;;;;;;4993722;28;20651;-46
2021/06/17 11:03:57;;;;;;;3.45;3.15;;;25.90;42.60;;;;;;4994046;28;20204;-54
2021/06/17 11:06:23;;;;;;;3.50;2.60;;;25.90;42.60;;;;;;4993584;28;20289;-51
2021/06/17 11:08:50;;;;;;;3.88;3.42;;;25.90;42.60;;;;;;4993556;28;20242;-47
2021/06/17 11:11:16;;;;;;;3.25;2.90;;;25.90;42.50;;;;;;4993156;28;20214;-52
2021/06/17 11:13:43;;;;;;;3.42;3.13;;;25.80;43.10;;;;;;4987562;28;20230;-56
2021/06/17 11:16:09;;;;;;;2.88;2.65;;;25.80;42.40;;;;;;4993163;28;20199;-51
2021/06/17 11:18:36;;;;;;;3.35;2.63;;;25.80;42.40;;;;;;4991759;28;20242;-42
2021/06/17 11:21:02;;;;;;;3.17;2.90;;;25.90;42.50;;;;;;4993026;28;20211;-55
2021/06/17 11:23:29;;;;;;;3.20;2.90;;;25.80;42.30;;;;;;4988261;28;20202;-50
2021/06/17 11:25:56;;;;;;;3.10;2.90;;;25.80;42.40;;;;;;4990164;28;20277;-55
2021/06/17 11:28:22;;;;;;;2.90;2.60;;;25.80;42.30;;;;;;4992924;28;20247;-43
2021/06/17 11:30:53;;;;;;;2.70;2.50;;;25.80;42.30;;;;;;4992971;28;20212;-50
2021/06/17 11:33:20;;;;;;;3.00;2.80;;;25.80;42.20;;;;;;4979592;28;20251;-49
2021/06/17 11:35:46;;;;;;;2.88;2.67;;;25.80;42.20;;;;;;4982011;28;20199;-47
2021/06/17 11:38:13;;;;;;;3.15;2.85;;;25.80;42.20;;;;;;4991735;28;20776;-44
2021/06/17 11:40:39;;;;;;;2.88;2.60;;;25.80;42.20;;;;;;4992647;28;20581;-50
2021/06/17 11:43:06;;;;;;;2.80;2.60;;;25.80;42.10;;;;;;4993075;28;20680;-48
2021/06/17 11:45:32;;;;;;;3.03;2.83;;;25.80;42.10;;;;;;4993213;28;20598;-57
2021/06/17 11:48:00;;;;;;;4.65;2.80;;;25.80;42.10;;;;;;4992984;28;20432;-46
2021/06/17 11:50:27;;;;;;;3.03;2.75;;;25.80;42.10;;;;;;4992424;28;20302;-47
2021/06/17 11:52:53;;;;;;;2.88;2.67;;;25.80;42.10;;;;;;4992631;28;20739;-53
2021/06/17 11:55:20;;;;;;;4.00;2.65;;;25.80;42.10;;;;;;4993302;28;20552;-46
2021/06/17 11:57:47;;;;;;;2.42;2.22;;;25.80;42.10;;;;;;4993109;28;20290;-46
2021/06/17 12:00:13;;;;;;;3.00;2.60;;;25.80;42.10;;;;;;4992894;28;20322;-52
2021/06/17 12:02:43;;;;;;;2.60;2.40;;;25.80;42.10;;;;;;4989414;28;20220;-46
2021/06/17 12:05:10;;;;;;;2.70;2.50;;;25.80;42.00;;;;;;4992066;28;20350;-57
2021/06/17 12:07:36;;;;;;;2.83;2.63;;;25.80;42.10;;;;;;4991002;28;20243;-42
2021/06/17 12:10:03;;;;;;;2.63;2.42;;;25.90;42.10;;;;;;4990489;28;20210;-51
2021/06/17 12:12:29;;;;;;;4.03;2.97;;;25.90;42.40;;;;;;4989875;28;20700;-44
2021/06/17 12:14:56;;;;;;;2.92;2.50;;;25.90;42.40;;;;;;4971412;28;20574;-48
2021/06/17 12:17:22;;;;;;;3.67;2.70;;;25.90;42.20;;;;;;4989797;28;20346;-50
2021/06/17 12:19:48;;;;;;;3.63;2.40;;;25.90;42.60;;;;;;4987466;28;20210;-45
2021/06/17 12:22:15;;;;;;;4.07;3.15;;;25.90;42.60;;;;;;4990879;28;20200;-52
2021/06/17 12:24:41;;;;;;;4.25;2.75;;;25.90;42.60;;;;;;4992469;28;20200;-47
2021/06/17 12:27:08;;;;;;;4.85;2.65;;;25.90;42.50;;;;;;4983636;28;20234;-45
2021/06/17 12:29:34;;;;;;;3.55;2.55;;;25.90;42.50;;;;;;4990703;28;20238;-55
2021/06/17 12:32:01;;;;;;;3.05;2.70;;;25.90;42.40;;;;;;4980516;28;20708;-43
2021/06/17 12:34:30;;;;;;;3.63;2.78;;;25.90;42.30;;;;;;4991088;28;20738;-52
2021/06/17 12:36:56;;;;;;;3.42;3.05;;;25.90;42.20;;;;;;4991834;28;20251;-46
2021/06/17 12:39:23;;;;;;;2.72;2.53;;;25.90;42.20;;;;;;4991422;28;20290;-51
2021/06/17 12:41:49;;;;;;;3.45;2.83;;;25.90;42.10;;;;;;4989117;28;20299;-48
2021/06/17 12:44:16;;;;;;;2.83;2.50;;;25.90;41.90;;;;;;4990582;28;20230;-45
2021/06/17 12:46:42;;;;;;;3.10;2.90;;;25.90;41.80;;;;;;4990886;28;20230;-45